createdAt,value
2023-03-16T00:00:28.555Z,-1.40
2023-03-16T00:02:56.965Z,-1.41
2023-03-16T00:05:26.181Z,-1.45
2023-03-16T00:07:54.635Z,-1.46
2023-03-16T00:10:27.680Z,-1.45
2023-03-16T00:12:58.732Z,-1.45
2023-03-16T00:15:26.834Z,-1.49
2023-03-16T00:17:54.952Z,-1.53
2023-03-16T00:20:24.494Z,-1.53
2023-03-16T00:22:57.270Z,-1.50
2023-03-16T00:25:25.772Z,-1.45
2023-03-16T00:27:55.430Z,-1.47
2023-03-16T00:30:27.748Z,-1.49
2023-03-16T00:32:56.384Z,-1.50
2023-03-16T00:35:24.628Z,-1.57
2023-03-16T00:37:52.769Z,-1.63
2023-03-16T00:40:21.269Z,-1.66
2023-03-16T00:42:49.526Z,-1.70
2023-03-16T00:45:17.847Z,-1.73
2023-03-16T00:47:47.504Z,-1.75
2023-03-16T00:50:15.771Z,-1.75
2023-03-16T00:52:43.940Z,-1.75
2023-03-16T00:55:12.988Z,-1.76
2023-03-16T00:57:41.461Z,-1.76
2023-03-16T01:00:12.969Z,-1.79
2023-03-16T01:02:41.593Z,-1.79
2023-03-16T01:05:14.165Z,-1.79
2023-03-16T01:07:43.029Z,-1.81
2023-03-16T01:10:12.518Z,-1.85
2023-03-16T01:12:41.267Z,-1.86
2023-03-16T01:15:11.527Z,-1.90
2023-03-16T01:17:40.081Z,-1.88
2023-03-16T01:20:11.924Z,-1.90
2023-03-16T01:22:42.297Z,-1.89
2023-03-16T01:25:12.931Z,-1.90
2023-03-16T01:27:43.440Z,-1.87
2023-03-16T01:30:13.680Z,-1.83
2023-03-16T01:32:43.546Z,-1.86
2023-03-16T01:35:14.742Z,-1.90
2023-03-16T01:37:44.286Z,-1.90
2023-03-16T01:40:19.943Z,-1.91
2023-03-16T01:42:50.932Z,-1.95
2023-03-16T01:46:18.384Z,-1.97
2023-03-16T01:48:59.771Z,-2.00
2023-03-16T01:51:35.106Z,-2.02
2023-03-16T01:54:08.797Z,-2.03
2023-03-16T01:56:42.035Z,-2.08
2023-03-16T01:59:15.603Z,-2.05
2023-03-16T02:01:44.555Z,-2.08
2023-03-16T02:04:23.067Z,-2.08
2023-03-16T02:06:56.499Z,-2.09
2023-03-16T02:09:27.146Z,-2.07
2023-03-16T02:11:56.743Z,-2.08
2023-03-16T02:14:26.308Z,-2.06
2023-03-16T02:16:55.919Z,-2.11
2023-03-16T02:19:36.134Z,-2.16
2023-03-16T02:22:07.650Z,-2.19
2023-03-16T02:24:38.278Z,-2.20
2023-03-16T02:27:10.622Z,-2.20
2023-03-16T02:29:54.314Z,-2.15
2023-03-16T02:32:25.519Z,-2.09
2023-03-16T02:34:54.306Z,-2.02
2023-03-16T02:37:22.745Z,-2.00
2023-03-16T02:39:51.001Z,-1.86
2023-03-16T02:42:26.829Z,-1.79
2023-03-16T02:45:01.580Z,-1.82
2023-03-16T02:47:44.429Z,-1.81
2023-03-16T02:50:14.848Z,-1.80
2023-03-16T02:52:44.377Z,-1.83
2023-03-16T02:55:13.407Z,-1.85
2023-03-16T02:57:41.793Z,-1.91
2023-03-16T03:00:19.239Z,-1.98
2023-03-16T03:02:52.715Z,-2.05
2023-03-16T03:05:21.561Z,-2.05
2023-03-16T03:07:49.706Z,-2.06
2023-03-16T03:10:19.788Z,-2.05
2023-03-16T03:12:49.858Z,-2.08
2023-03-16T03:15:21.574Z,-2.07
2023-03-16T03:18:02.607Z,-2.01
2023-03-16T03:20:32.587Z,-1.97
2023-03-16T03:23:00.840Z,-1.95
2023-03-16T03:25:29.288Z,-1.93
2023-03-16T03:27:58.810Z,-1.97
2023-03-16T03:30:30.041Z,-1.96
2023-03-16T03:32:59.807Z,-2.07
2023-03-16T03:35:28.712Z,-2.09
2023-03-16T03:37:57.193Z,-2.09
2023-03-16T03:40:26.758Z,-2.02
2023-03-16T03:43:02.448Z,-2.08
2023-03-16T03:45:34.010Z,-2.15
2023-03-16T03:48:03.217Z,-2.16
2023-03-16T03:50:31.418Z,-2.16
2023-03-16T03:53:15.415Z,-2.18
2023-03-16T03:56:03.832Z,-2.15
2023-03-16T03:58:32.860Z,-2.21
2023-03-16T04:01:05.863Z,-2.22
2023-03-16T04:03:35.634Z,-2.30
2023-03-16T04:06:04.149Z,-2.34
2023-03-16T04:08:33.169Z,-2.40
2023-03-16T04:11:02.111Z,-2.47
2023-03-16T04:13:31.443Z,-2.46
2023-03-16T04:16:02.571Z,-2.41
2023-03-16T04:18:38.800Z,-2.33
2023-03-16T04:21:12.569Z,-2.41
2023-03-16T04:23:42.540Z,-2.42
2023-03-16T04:26:11.240Z,-2.39
2023-03-16T04:28:41.048Z,-2.29
2023-03-16T04:31:11.739Z,-2.32
2023-03-16T04:33:47.915Z,-2.26
2023-03-16T04:36:17.483Z,-2.31
2023-03-16T04:38:46.629Z,-2.33
2023-03-16T04:41:15.072Z,-2.31
2023-03-16T04:44:02.376Z,-2.33
2023-03-16T04:46:33.673Z,-2.31
2023-03-16T04:49:09.874Z,-2.32
2023-03-16T04:51:40.805Z,-2.28
2023-03-16T04:54:11.682Z,-2.32
2023-03-16T04:56:43.768Z,-2.36
2023-03-16T04:59:26.114Z,-2.40
2023-03-16T05:02:04.055Z,-2.35
2023-03-16T05:04:34.505Z,-2.32
2023-03-16T05:07:04.389Z,-2.31
2023-03-16T05:09:37.806Z,-2.36
2023-03-16T05:12:06.495Z,-2.40
2023-03-16T05:14:36.123Z,-2.41
2023-03-16T05:17:23.954Z,-2.39
2023-03-16T05:19:53.648Z,-2.34
2023-03-16T05:22:22.727Z,-2.30
2023-03-16T05:25:14.908Z,-2.28
2023-03-16T05:27:49.590Z,-2.21
2023-03-16T05:30:25.122Z,-2.17
2023-03-16T05:32:58.783Z,-2.19
2023-03-16T05:35:32.747Z,-2.19
2023-03-16T05:38:05.884Z,-2.13
2023-03-16T05:40:37.603Z,-2.14
2023-03-16T05:43:26.381Z,-2.18
2023-03-16T05:46:00.725Z,-2.14
2023-03-16T05:48:29.016Z,-2.09
2023-03-16T05:51:05.907Z,-2.05
2023-03-16T05:53:35.795Z,-1.99
2023-03-16T05:56:15.569Z,-1.90
2023-03-16T05:58:47.629Z,-1.83
2023-03-16T06:01:17.780Z,-1.71
2023-03-16T06:03:53.070Z,-1.62
2023-03-16T06:06:34.527Z,-1.52
2023-03-16T06:09:15.855Z,-1.41
2023-03-16T06:11:44.721Z,-1.33
2023-03-16T06:14:20.385Z,-1.22
2023-03-16T06:16:51.416Z,-1.19
2023-03-16T06:19:25.702Z,-1.09
2023-03-16T06:22:03.312Z,-1.01
2023-03-16T06:24:49.041Z,-0.93
2023-03-16T06:27:20.282Z,-0.83
2023-03-16T06:30:19.461Z,-0.62
2023-03-16T06:33:00.426Z,-0.42
2023-03-16T06:35:38.456Z,-0.28
2023-03-16T06:38:15.909Z,-0.13
2023-03-16T06:40:56.816Z,0.02
2023-03-16T06:43:34.757Z,0.29
2023-03-16T06:46:06.265Z,0.48
2023-03-16T06:48:35.856Z,0.76
2023-03-16T06:51:08.289Z,0.98
2023-03-16T06:53:39.506Z,1.36
2023-03-16T06:56:11.352Z,1.70
2023-03-16T06:58:43.070Z,2.07
2023-03-16T07:01:12.629Z,2.32
2023-03-16T07:03:42.353Z,2.48
2023-03-16T07:06:37.115Z,2.95
2023-03-16T07:09:08.226Z,3.27
2023-03-16T07:11:38.665Z,3.56
2023-03-16T07:14:06.898Z,3.87
2023-03-16T07:16:36.529Z,4.01
2023-03-16T07:19:07.793Z,4.04
2023-03-16T07:21:40.156Z,4.13
2023-03-16T07:24:16.234Z,4.27
2023-03-16T07:26:44.667Z,4.49
2023-03-16T07:29:17.274Z,4.78
2023-03-16T07:31:46.595Z,4.86
2023-03-16T07:34:20.322Z,4.95
2023-03-16T07:36:54.620Z,5.10
2023-03-16T07:39:27.475Z,5.07
2023-03-16T07:42:02.563Z,5.01
2023-03-16T07:44:41.832Z,5.14
2023-03-16T07:47:13.161Z,5.08
2023-03-16T07:49:44.162Z,4.78
2023-03-16T07:52:16.104Z,4.64
2023-03-16T07:54:48.809Z,4.78
2023-03-16T07:57:17.158Z,4.89
2023-03-16T07:59:46.735Z,4.97
2023-03-16T08:02:20.339Z,4.94
2023-03-16T08:04:49.331Z,5.05
2023-03-16T08:07:19.091Z,5.12
2023-03-16T08:10:01.270Z,5.38
2023-03-16T08:12:35.991Z,5.89
2023-03-16T08:15:06.304Z,5.80
2023-03-16T08:17:35.488Z,5.60
2023-03-16T08:20:10.607Z,5.72
2023-03-16T08:22:39.151Z,5.77
2023-03-16T08:25:11.509Z,5.76
2023-03-16T08:27:45.956Z,5.81
2023-03-16T08:30:17.028Z,5.67
2023-03-16T08:32:53.097Z,5.87
2023-03-16T08:35:25.336Z,5.74
2023-03-16T08:37:54.795Z,5.97
2023-03-16T08:40:25.114Z,5.91
2023-03-16T08:42:55.774Z,5.80
2023-03-16T08:45:24.514Z,6.06
2023-03-16T08:47:53.728Z,6.39
2023-03-16T08:50:22.490Z,6.62
2023-03-16T08:52:51.162Z,6.66
2023-03-16T08:55:19.330Z,6.80
2023-03-16T08:58:20.670Z,6.63
2023-03-16T09:00:50.766Z,6.83
2023-03-16T09:07:28.231Z,7.11
2023-03-16T09:13:11.595Z,7.48
2023-03-16T09:15:40.868Z,7.62
2023-03-16T09:18:09.021Z,7.49
2023-03-16T09:20:37.712Z,7.70
2023-03-16T09:23:06.172Z,8.07
2023-03-16T09:25:34.746Z,8.16
2023-03-16T09:28:02.971Z,8.02
2023-03-16T09:33:20.671Z,8.22
2023-03-16T09:35:50.847Z,8.29
2023-03-16T09:38:21.626Z,8.58
2023-03-16T09:40:56.841Z,8.65
2023-03-16T09:43:53.268Z,8.51
2023-03-16T09:46:29.000Z,8.65
2023-03-16T09:48:58.978Z,8.40
2023-03-16T09:51:38.579Z,8.68
2023-03-16T09:54:19.257Z,8.83
2023-03-16T09:56:51.166Z,8.79
2023-03-16T09:59:23.372Z,8.75
2023-03-16T10:02:04.392Z,8.75
2023-03-16T10:04:50.554Z,8.87
2023-03-16T10:07:33.640Z,9.18
2023-03-16T10:10:16.819Z,8.96
2023-03-16T10:12:52.570Z,8.32
2023-03-16T10:15:28.203Z,8.18
2023-03-16T10:18:02.097Z,8.33
2023-03-16T10:20:34.864Z,8.78
2023-03-16T10:23:17.814Z,8.80
2023-03-16T10:26:12.979Z,8.94
2023-03-16T10:28:43.375Z,9.08
2023-03-16T10:31:14.028Z,8.87
2023-03-16T10:33:44.790Z,8.93
2023-03-16T10:36:19.592Z,9.08
2023-03-16T10:38:51.642Z,8.96
2023-03-16T10:41:47.047Z,9.28
2023-03-16T10:44:17.769Z,9.40
2023-03-16T10:46:49.265Z,9.52
2023-03-16T10:49:27.501Z,9.61
2023-03-16T10:51:57.962Z,9.88
2023-03-16T10:54:32.243Z,10.50
2023-03-16T10:57:03.122Z,10.38
2023-03-16T10:59:34.482Z,10.55
2023-03-16T11:02:07.668Z,11.03
2023-03-16T11:04:39.371Z,11.14
2023-03-16T11:07:09.199Z,11.35
2023-03-16T11:09:38.419Z,11.36
2023-03-16T11:12:17.180Z,11.43
2023-03-16T11:14:47.521Z,11.75
2023-03-16T11:17:20.277Z,12.26
2023-03-16T11:19:59.606Z,11.34
2023-03-16T11:22:30.291Z,11.65
2023-03-16T11:25:06.683Z,11.72
2023-03-16T11:27:40.614Z,11.61
2023-03-16T11:30:18.952Z,11.86
2023-03-16T11:32:54.865Z,12.06
2023-03-16T11:35:35.283Z,12.50
2023-03-16T11:38:15.637Z,12.55
2023-03-16T11:40:56.128Z,12.35
2023-03-16T11:43:48.674Z,12.52
2023-03-16T11:46:23.425Z,12.20
2023-03-16T11:49:15.650Z,12.09
2023-03-16T11:51:51.656Z,11.85
2023-03-16T11:54:51.305Z,12.21
2023-03-16T11:57:34.721Z,12.05
2023-03-16T12:00:40.800Z,11.78
2023-03-16T12:04:03.061Z,12.08
2023-03-16T12:06:48.350Z,12.12
2023-03-16T12:09:47.083Z,12.23
2023-03-16T12:12:29.568Z,12.41
2023-03-16T12:15:29.741Z,12.23
2023-03-16T12:18:06.238Z,12.35
2023-03-16T12:20:42.175Z,12.11
2023-03-16T12:23:14.833Z,11.76
2023-03-16T12:25:49.124Z,12.15
2023-03-16T12:28:25.021Z,12.46
2023-03-16T12:34:05.018Z,13.01
2023-03-16T12:36:58.948Z,13.65
2023-03-16T12:39:42.052Z,13.29
2023-03-16T12:42:35.855Z,13.28
2023-03-16T12:45:12.437Z,14.12
2023-03-16T12:47:52.236Z,14.17
2023-03-16T12:50:22.439Z,14.75
2023-03-16T12:52:54.171Z,14.53
2023-03-16T12:55:28.394Z,14.91
2023-03-16T12:58:06.527Z,14.89
2023-03-16T13:00:37.674Z,14.29
2023-03-16T13:03:12.945Z,14.97
2023-03-16T13:05:47.684Z,15.30
2023-03-16T13:08:19.273Z,15.19
2023-03-16T13:11:03.529Z,15.26
2023-03-16T13:13:38.669Z,14.78
2023-03-16T13:16:11.054Z,14.87
2023-03-16T13:18:45.069Z,15.11
2023-03-16T13:21:20.566Z,15.11
2023-03-16T13:23:55.828Z,15.20
2023-03-16T13:26:35.400Z,14.91
2023-03-16T13:29:25.837Z,14.42
2023-03-16T13:31:56.370Z,14.59
2023-03-16T13:34:29.704Z,14.66
2023-03-16T13:37:00.062Z,14.82
2023-03-16T13:39:34.430Z,15.35
2023-03-16T13:42:17.899Z,15.47
2023-03-16T13:45:01.841Z,15.04
2023-03-16T13:47:30.218Z,15.02
2023-03-16T13:50:12.508Z,14.17
2023-03-16T13:52:43.245Z,14.45
2023-03-16T13:55:17.510Z,14.96
2023-03-16T13:57:49.575Z,14.71
2023-03-16T14:00:32.384Z,14.22
2023-03-16T14:03:10.069Z,14.62
2023-03-16T14:06:05.956Z,14.37
2023-03-16T14:08:51.455Z,13.62
2023-03-16T14:11:20.952Z,13.61
2023-03-16T14:13:55.126Z,13.57
2023-03-16T14:16:26.586Z,13.42
2023-03-16T14:19:02.566Z,13.18
2023-03-16T14:21:35.468Z,12.83
2023-03-16T14:24:05.716Z,12.58
2023-03-16T14:26:42.742Z,12.73
2023-03-16T14:29:20.803Z,12.82
2023-03-16T14:31:51.541Z,13.02
2023-03-16T14:34:30.281Z,12.77
2023-03-16T14:37:47.533Z,12.95
2023-03-16T14:40:41.566Z,13.18
2023-03-16T14:43:15.820Z,13.02
2023-03-16T14:46:48.367Z,13.35
2023-03-16T14:53:16.728Z,13.25
2023-03-16T14:59:35.428Z,13.12
2023-03-16T15:02:15.841Z,12.73
2023-03-16T15:05:17.480Z,12.53
2023-03-16T15:07:46.429Z,12.91
2023-03-16T15:10:23.364Z,13.02
2023-03-16T15:12:54.268Z,13.13
2023-03-16T15:16:06.999Z,12.95
2023-03-16T15:22:28.416Z,12.80
2023-03-16T15:24:58.001Z,12.50
2023-03-16T15:27:35.090Z,12.29
2023-03-16T15:30:03.890Z,11.98
2023-03-16T15:32:48.311Z,11.98
2023-03-16T15:35:24.797Z,11.91
2023-03-16T15:38:08.192Z,12.11
2023-03-16T15:40:38.810Z,12.35
2023-03-16T15:43:13.682Z,12.20
2023-03-16T15:45:43.251Z,12.16
2023-03-16T15:48:15.569Z,12.02
2023-03-16T15:50:48.282Z,11.82
2023-03-16T15:53:34.095Z,12.13
2023-03-16T15:56:32.249Z,11.83
2023-03-16T15:59:43.702Z,11.82
2023-03-16T16:06:32.145Z,11.59
2023-03-16T16:09:07.365Z,11.63
2023-03-16T16:11:36.576Z,11.39
2023-03-16T16:14:21.522Z,11.27
2023-03-16T16:16:59.894Z,11.06
2023-03-16T16:19:36.305Z,10.97
2023-03-16T16:22:11.141Z,10.89
2023-03-16T16:24:49.325Z,10.81
2023-03-16T16:27:17.719Z,10.83
2023-03-16T16:29:46.981Z,10.87
2023-03-16T16:32:25.167Z,10.68
2023-03-16T16:35:03.893Z,10.61
2023-03-16T16:37:35.553Z,10.52
2023-03-16T16:40:05.375Z,10.45
2023-03-16T16:43:41.122Z,10.37
2023-03-16T16:46:44.129Z,10.31
2023-03-16T16:49:40.245Z,10.28
2023-03-16T16:52:15.631Z,10.13
2023-03-16T16:54:44.625Z,10.03
2023-03-16T16:57:18.375Z,10.01
2023-03-16T17:00:50.036Z,10.14
2023-03-16T17:03:25.078Z,9.93
2023-03-16T17:05:56.085Z,9.88
2023-03-16T17:08:25.109Z,9.74
2023-03-16T17:10:54.380Z,9.71
2023-03-16T17:13:28.041Z,9.53
2023-03-16T17:15:57.858Z,9.53
2023-03-16T17:18:27.870Z,9.44
2023-03-16T17:22:04.987Z,9.44
2023-03-16T17:29:57.164Z,9.07
2023-03-16T17:33:36.144Z,9.18
2023-03-16T17:36:06.894Z,9.18
2023-03-16T17:38:37.315Z,9.07
2023-03-16T17:41:06.230Z,8.87
2023-03-16T17:43:38.350Z,8.80
2023-03-16T17:46:07.450Z,9.10
2023-03-16T17:48:35.712Z,8.88
2023-03-16T17:51:08.025Z,8.92
2023-03-16T17:53:38.493Z,8.56
2023-03-16T17:56:22.680Z,8.31
2023-03-16T17:58:53.198Z,8.32
2023-03-16T18:01:25.087Z,8.25
2023-03-16T18:03:55.291Z,8.39
2023-03-16T18:06:26.238Z,8.40
2023-03-16T18:08:57.293Z,8.51
2023-03-16T18:11:32.658Z,8.61
2023-03-16T18:14:02.041Z,8.53
2023-03-16T18:16:31.614Z,8.51
2023-03-16T18:19:00.741Z,8.46
2023-03-16T18:21:29.734Z,8.34
2023-03-16T18:23:59.630Z,8.89
2023-03-16T18:26:30.603Z,8.59
2023-03-16T18:28:59.318Z,8.36
2023-03-16T18:31:30.462Z,8.36
2023-03-16T18:34:02.469Z,8.36
2023-03-16T18:36:34.012Z,8.32
2023-03-16T18:39:07.207Z,8.46
2023-03-16T18:41:36.346Z,8.50
2023-03-16T18:44:17.905Z,8.51
2023-03-16T18:46:47.104Z,8.44
2023-03-16T18:49:20.016Z,8.37
2023-03-16T18:51:51.327Z,8.40
2023-03-16T18:54:24.424Z,8.41
2023-03-16T18:56:58.665Z,8.36
2023-03-16T18:59:28.207Z,8.17
2023-03-16T19:01:58.026Z,8.31
2023-03-16T19:04:27.100Z,8.49
2023-03-16T19:06:56.653Z,8.40
2023-03-16T19:09:28.614Z,8.70
2023-03-16T19:11:57.302Z,8.47
2023-03-16T19:14:28.531Z,8.29
2023-03-16T19:16:57.289Z,8.23
2023-03-16T19:19:27.360Z,8.12
2023-03-16T19:21:59.064Z,8.47
2023-03-16T19:24:35.301Z,8.42
2023-03-16T19:27:03.712Z,8.34
2023-03-16T19:29:35.275Z,8.39
2023-03-16T19:32:03.588Z,8.42
2023-03-16T19:34:32.413Z,8.60
2023-03-16T19:37:01.085Z,8.57
2023-03-16T19:39:30.618Z,8.33
2023-03-16T19:42:00.615Z,8.18
2023-03-16T19:44:29.651Z,8.22
2023-03-16T19:47:00.127Z,8.17
2023-03-16T19:49:29.261Z,7.99
2023-03-16T19:51:58.318Z,8.18
2023-03-16T19:54:28.337Z,8.09
2023-03-16T19:57:01.363Z,8.21
2023-03-16T19:59:33.076Z,7.97
2023-03-16T20:02:03.633Z,7.89
2023-03-16T20:04:32.182Z,7.79
2023-03-16T20:07:04.252Z,7.71
2023-03-16T20:09:36.385Z,7.72
2023-03-16T20:12:06.557Z,7.71
2023-03-16T20:14:35.295Z,7.77
2023-03-16T20:17:04.691Z,7.66
2023-03-16T20:19:33.649Z,7.83
2023-03-16T20:22:13.382Z,7.67
2023-03-16T20:24:44.213Z,7.56
2023-03-16T20:27:14.267Z,7.38
2023-03-16T20:29:43.261Z,7.27
2023-03-16T20:32:21.781Z,7.32
2023-03-16T20:34:53.577Z,7.35
2023-03-16T20:37:46.988Z,7.15
2023-03-16T20:40:16.566Z,7.04
2023-03-16T20:42:48.530Z,6.95
2023-03-16T20:45:19.080Z,6.86
2023-03-16T20:47:47.947Z,6.86
2023-03-16T20:50:22.720Z,7.03
2023-03-16T20:52:51.703Z,6.86
2023-03-16T20:55:22.959Z,6.77
2023-03-16T20:57:55.576Z,6.95
2023-03-16T21:00:31.506Z,6.91
2023-03-16T21:03:01.465Z,6.78
2023-03-16T21:05:30.884Z,6.77
2023-03-16T21:07:59.265Z,6.83
2023-03-16T21:10:28.312Z,6.78
2023-03-16T21:12:59.672Z,6.75
2023-03-16T21:15:31.790Z,6.70
2023-03-16T21:18:02.349Z,6.73
2023-03-16T21:20:33.495Z,6.83
2023-03-16T21:23:03.005Z,6.74
2023-03-16T21:25:35.237Z,6.70
2023-03-16T21:28:06.468Z,6.62
2023-03-16T21:30:38.709Z,6.79
2023-03-16T21:33:17.866Z,6.67
2023-03-16T21:35:46.336Z,6.68
2023-03-16T21:38:17.140Z,6.64
2023-03-16T21:40:45.844Z,6.67
2023-03-16T21:43:16.321Z,6.64
2023-03-16T21:45:46.073Z,6.59
2023-03-16T21:48:16.716Z,6.48
2023-03-16T21:50:45.869Z,6.47
2023-03-16T21:53:22.046Z,6.37
2023-03-16T21:55:51.783Z,6.40
2023-03-16T21:58:22.281Z,6.42
2023-03-16T22:00:52.688Z,6.46
2023-03-16T22:03:32.994Z,6.53
2023-03-16T22:06:12.581Z,6.54
2023-03-16T22:08:43.059Z,6.50
2023-03-16T22:11:17.329Z,6.40
2023-03-16T22:13:47.389Z,6.27
2023-03-16T22:16:19.221Z,6.28
2023-03-16T22:18:49.829Z,6.22
2023-03-16T22:21:28.970Z,6.21
2023-03-16T22:23:59.813Z,6.10
2023-03-16T22:26:29.078Z,6.02
2023-03-16T22:29:19.789Z,5.98
2023-03-16T22:31:49.470Z,6.20
2023-03-16T22:34:28.891Z,6.11
2023-03-16T22:36:58.700Z,6.22
2023-03-16T22:39:29.317Z,6.18
2023-03-16T22:41:58.339Z,6.15
2023-03-16T22:44:29.002Z,6.13
2023-03-16T22:46:58.326Z,6.15
2023-03-16T22:49:28.711Z,6.26
2023-03-16T22:51:58.558Z,6.29
2023-03-16T22:54:28.028Z,6.35
2023-03-16T22:56:57.163Z,6.32
2023-03-16T22:59:29.591Z,6.46
2023-03-16T23:01:59.631Z,6.46
2023-03-16T23:04:32.294Z,6.37
2023-03-16T23:07:00.845Z,6.54
2023-03-16T23:09:29.786Z,6.59
2023-03-16T23:11:59.490Z,6.46
2023-03-16T23:14:33.050Z,6.35
2023-03-16T23:17:01.838Z,6.28
2023-03-16T23:19:34.074Z,6.25
2023-03-16T23:22:05.192Z,6.21
2023-03-16T23:24:34.077Z,6.14
2023-03-16T23:27:03.251Z,6.09
2023-03-16T23:29:32.906Z,6.01
2023-03-16T23:32:01.171Z,5.93
2023-03-16T23:34:29.440Z,5.87
2023-03-16T23:36:58.852Z,5.78
2023-03-16T23:39:31.239Z,5.74
2023-03-16T23:42:00.118Z,5.62
2023-03-16T23:44:30.507Z,5.47
2023-03-16T23:47:00.913Z,5.31
2023-03-16T23:49:32.553Z,5.14
2023-03-16T23:52:02.473Z,5.02
2023-03-16T23:54:33.328Z,4.87
2023-03-16T23:57:02.405Z,4.73
2023-03-16T23:59:31.673Z,4.65
